sensor_id;sensor_type;location;lat;lon;timestamp;pressure;altitude;pressure_sealevel;temperature;humidity
8360;BME280;4217;48.762;11.428;2022-08-19T00:05:25;96841.50;;;24.38;68.72
8360;BME280;4217;48.762;11.428;2022-08-19T00:15:27;96875.41;;;24.27;68.97
8360;BME280;4217;48.762;11.428;2022-08-19T00:25:28;96888.22;;;24.49;67.77
8360;BME280;4217;48.762;11.428;2022-08-19T00:35:31;96872.28;;;24.72;66.83
8360;BME280;4217;48.762;11.428;2022-08-19T00:45:33;96867.13;;;24.83;66.74
8360;BME280;4217;48.762;11.428;2022-08-19T00:55:37;96867.00;;;24.91;66.74
8360;BME280;4217;48.762;11.428;2022-08-19T01:05:43;96882.31;;;24.75;67.55
8360;BME280;4217;48.762;11.428;2022-08-19T01:15:49;96885.78;;;24.76;67.16
8360;BME280;4217;48.762;11.428;2022-08-19T01:25:52;96887.47;;;24.80;67.02
8360;BME280;4217;48.762;11.428;2022-08-19T01:36:11;96910.38;;;24.90;67.03
8360;BME280;4217;48.762;11.428;2022-08-19T01:46:14;96938.09;;;24.62;67.57
8360;BME280;4217;48.762;11.428;2022-08-19T01:56:15;96936.78;;;24.41;67.83
8360;BME280;4217;48.762;11.428;2022-08-19T02:06:17;96936.97;;;24.48;67.25
8360;BME280;4217;48.762;11.428;2022-08-19T02:16:19;96962.38;;;24.50;66.98
8360;BME280;4217;48.762;11.428;2022-08-19T02:26:21;96975.75;;;24.62;66.32
8360;BME280;4217;48.762;11.428;2022-08-19T02:36:24;96942.28;;;24.76;66.20
8360;BME280;4217;48.762;11.428;2022-08-19T02:46:28;96913.97;;;24.82;66.24
8360;BME280;4217;48.762;11.428;2022-08-19T02:56:30;96895.59;;;24.68;66.48
8360;BME280;4217;48.762;11.428;2022-08-19T03:06:37;96926.22;;;24.48;66.85
8360;BME280;4217;48.762;11.428;2022-08-19T03:16:51;96911.75;;;24.52;67.22
8360;BME280;4217;48.762;11.428;2022-08-19T03:26:54;96932.72;;;24.47;67.16
8360;BME280;4217;48.762;11.428;2022-08-19T03:37:08;96918.56;;;24.50;66.66
8360;BME280;4217;48.762;11.428;2022-08-19T03:47:10;96913.19;;;24.34;67.51
8360;BME280;4217;48.762;11.428;2022-08-19T03:57:15;96919.25;;;24.31;67.46
8360;BME280;4217;48.762;11.428;2022-08-19T04:07:17;96932.69;;;24.31;67.70
8360;BME280;4217;48.762;11.428;2022-08-19T04:17:22;96928.63;;;24.37;67.25
8360;BME280;4217;48.762;11.428;2022-08-19T04:27:24;96954.53;;;24.02;69.04
8360;BME280;4217;48.762;11.428;2022-08-19T04:37:26;96970.59;;;24.42;67.68
8360;BME280;4217;48.762;11.428;2022-08-19T04:47:37;96968.69;;;24.42;67.50
8360;BME280;4217;48.762;11.428;2022-08-19T04:57:58;96989.84;;;24.44;66.80
8360;BME280;4217;48.762;11.428;2022-08-19T05:08:00;96997.38;;;24.38;67.07
8360;BME280;4217;48.762;11.428;2022-08-19T05:18:02;96991.28;;;24.69;65.97
8360;BME280;4217;48.762;11.428;2022-08-19T05:28:22;96992.81;;;24.98;64.92
8360;BME280;4217;48.762;11.428;2022-08-19T05:38:23;96998.22;;;25.14;64.49
8360;BME280;4217;48.762;11.428;2022-08-19T05:48:28;97000.78;;;25.26;64.05
8360;BME280;4217;48.762;11.428;2022-08-19T05:58:30;97007.81;;;25.15;64.31
8360;BME280;4217;48.762;11.428;2022-08-19T06:08:34;96998.28;;;25.33;63.46
8360;BME280;4217;48.762;11.428;2022-08-19T06:18:37;96997.91;;;25.34;63.50
8360;BME280;4217;48.762;11.428;2022-08-19T06:28:38;96979.28;;;25.61;63.27
8360;BME280;4217;48.762;11.428;2022-08-19T06:38:44;97007.69;;;25.93;61.88
8360;BME280;4217;48.762;11.428;2022-08-19T06:48:47;97017.19;;;25.87;61.66
8360;BME280;4217;48.762;11.428;2022-08-19T06:58:49;97022.84;;;26.17;61.11
8360;BME280;4217;48.762;11.428;2022-08-19T07:08:53;97015.34;;;26.26;60.61
8360;BME280;4217;48.762;11.428;2022-08-19T07:18:56;97002.78;;;26.34;60.09
8360;BME280;4217;48.762;11.428;2022-08-19T07:28:59;97004.16;;;26.08;60.64
8360;BME280;4217;48.762;11.428;2022-08-19T07:39:09;97016.03;;;26.23;60.58
8360;BME280;4217;48.762;11.428;2022-08-19T07:49:12;97027.31;;;26.09;60.55
8360;BME280;4217;48.762;11.428;2022-08-19T07:59:19;97021.56;;;26.11;60.91
8360;BME280;4217;48.762;11.428;2022-08-19T08:09:34;97005.41;;;26.30;60.31
8360;BME280;4217;48.762;11.428;2022-08-19T08:19:40;96988.84;;;27.16;57.79
8360;BME280;4217;48.762;11.428;2022-08-19T08:29:44;97000.09;;;26.76;58.17
8360;BME280;4217;48.762;11.428;2022-08-19T08:39:46;96995.63;;;27.29;57.00
8360;BME280;4217;48.762;11.428;2022-08-19T08:49:59;96987.00;;;28.32;54.37
8360;BME280;4217;48.762;11.428;2022-08-19T09:00:10;96994.53;;;28.49;54.22
8360;BME280;4217;48.762;11.428;2022-08-19T09:10:20;97006.16;;;29.31;52.38
8360;BME280;4217;48.762;11.428;2022-08-19T09:20:26;97001.28;;;29.51;50.33
8360;BME280;4217;48.762;11.428;2022-08-19T09:30:31;97005.69;;;29.80;49.80
8360;BME280;4217;48.762;11.428;2022-08-19T09:40:32;97005.88;;;29.43;50.83
8360;BME280;4217;48.762;11.428;2022-08-19T09:50:38;97003.66;;;28.34;53.05
8360;BME280;4217;48.762;11.428;2022-08-19T10:00:56;97010.34;;;27.09;55.76
8360;BME280;4217;48.762;11.428;2022-08-19T10:10:58;97012.25;;;27.08;56.17
8360;BME280;4217;48.762;11.428;2022-08-19T10:21:23;97006.91;;;26.89;57.20
8360;BME280;4217;48.762;11.428;2022-08-19T10:31:29;97006.44;;;26.87;57.79
8360;BME280;4217;48.762;11.428;2022-08-19T10:41:50;97014.91;;;26.85;58.00
8360;BME280;4217;48.762;11.428;2022-08-19T10:51:52;97011.22;;;26.51;59.36
8360;BME280;4217;48.762;11.428;2022-08-19T11:02:20;97004.63;;;26.30;60.14
8360;BME280;4217;48.762;11.428;2022-08-19T11:12:21;97010.06;;;26.14;60.83
8360;BME280;4217;48.762;11.428;2022-08-19T11:22:23;97002.31;;;26.12;61.94
8360;BME280;4217;48.762;11.428;2022-08-19T11:32:36;96998.53;;;25.28;66.85
8360;BME280;4217;48.762;11.428;2022-08-19T11:42:38;97020.25;;;24.32;70.99
8360;BME280;4217;48.762;11.428;2022-08-19T11:52:58;97019.56;;;23.83;74.28
8360;BME280;4217;48.762;11.428;2022-08-19T12:02:59;97017.47;;;23.76;74.69
8360;BME280;4217;48.762;11.428;2022-08-19T12:13:01;97003.16;;;24.25;75.02
8360;BME280;4217;48.762;11.428;2022-08-19T12:23:04;97016.56;;;24.80;73.50
8360;BME280;4217;48.762;11.428;2022-08-19T12:33:05;97029.72;;;25.13;72.74
8360;BME280;4217;48.762;11.428;2022-08-19T12:43:07;97030.75;;;25.24;71.66
8360;BME280;4217;48.762;11.428;2022-08-19T12:53:09;97047.94;;;25.04;71.52
8360;BME280;4217;48.762;11.428;2022-08-19T13:03:10;97051.94;;;24.67;71.94
8360;BME280;4217;48.762;11.428;2022-08-19T13:13:12;97048.78;;;25.08;70.54
8360;BME280;4217;48.762;11.428;2022-08-19T13:23:13;97052.63;;;25.07;69.92
8360;BME280;4217;48.762;11.428;2022-08-19T13:33:15;97051.03;;;24.62;71.16
8360;BME280;4217;48.762;11.428;2022-08-19T13:43:17;97067.22;;;24.78;70.84
8360;BME280;4217;48.762;11.428;2022-08-19T13:53:24;97056.00;;;24.60;71.19
8360;BME280;4217;48.762;11.428;2022-08-19T14:03:26;97046.03;;;24.77;71.34
8360;BME280;4217;48.762;11.428;2022-08-19T14:13:28;97039.16;;;24.91;70.93
8360;BME280;4217;48.762;11.428;2022-08-19T14:23:31;97044.56;;;24.79;70.70
8360;BME280;4217;48.762;11.428;2022-08-19T14:33:33;97028.50;;;24.83;70.32
8360;BME280;4217;48.762;11.428;2022-08-19T14:43:34;97032.31;;;25.25;69.24
8360;BME280;4217;48.762;11.428;2022-08-19T14:53:36;97025.44;;;25.59;67.70
8360;BME280;4217;48.762;11.428;2022-08-19T15:03:39;97035.81;;;26.69;63.84
8360;BME280;4217;48.762;11.428;2022-08-19T15:13:43;97050.81;;;26.28;63.89
8360;BME280;4217;48.762;11.428;2022-08-19T15:23:46;97049.75;;;26.52;63.42
8360;BME280;4217;48.762;11.428;2022-08-19T15:33:51;97059.06;;;26.35;63.43
8360;BME280;4217;48.762;11.428;2022-08-19T15:44:01;97065.34;;;25.89;64.50
8360;BME280;4217;48.762;11.428;2022-08-19T15:54:11;97063.44;;;25.89;64.79
8360;BME280;4217;48.762;11.428;2022-08-19T16:04:13;97067.00;;;26.28;63.83
8360;BME280;4217;48.762;11.428;2022-08-19T16:14:34;97049.84;;;26.20;63.74
8360;BME280;4217;48.762;11.428;2022-08-19T16:24:38;97064.72;;;26.30;62.92
8360;BME280;4217;48.762;11.428;2022-08-19T16:34:40;97078.38;;;25.87;63.31
8360;BME280;4217;48.762;11.428;2022-08-19T16:44:43;97098.22;;;25.31;64.96
8360;BME280;4217;48.762;11.428;2022-08-19T16:54:46;97101.25;;;24.86;65.07
8360;BME280;4217;48.762;11.428;2022-08-19T17:04:48;97082.63;;;24.66;65.40
8360;BME280;4217;48.762;11.428;2022-08-19T17:15:00;97099.78;;;24.09;66.31
8360;BME280;4217;48.762;11.428;2022-08-19T17:25:04;97113.25;;;23.60;67.08
8360;BME280;4217;48.762;11.428;2022-08-19T17:35:06;97130.97;;;23.28;67.87
8360;BME280;4217;48.762;11.428;2022-08-19T17:45:09;97134.53;;;22.87;69.09
8360;BME280;4217;48.762;11.428;2022-08-19T17:55:11;97162.47;;;22.15;72.21
8360;BME280;4217;48.762;11.428;2022-08-19T18:05:13;97163.22;;;21.86;74.59
8360;BME280;4217;48.762;11.428;2022-08-19T18:15:15;97178.56;;;21.69;75.49
8360;BME280;4217;48.762;11.428;2022-08-19T18:25:25;97196.97;;;21.79;75.80
8360;BME280;4217;48.762;11.428;2022-08-19T18:35:29;97193.94;;;21.98;75.06
8360;BME280;4217;48.762;11.428;2022-08-19T18:45:31;97222.78;;;21.75;75.04
8360;BME280;4217;48.762;11.428;2022-08-19T18:55:51;97239.63;;;21.84;74.45
8360;BME280;4217;48.762;11.428;2022-08-19T19:05:55;97253.09;;;21.41;74.76
8360;BME280;4217;48.762;11.428;2022-08-19T19:15:56;97252.41;;;21.70;73.48
8360;BME280;4217;48.762;11.428;2022-08-19T19:25:58;97255.09;;;21.70;73.45
8360;BME280;4217;48.762;11.428;2022-08-19T19:36:00;97266.56;;;21.79;72.55
8360;BME280;4217;48.762;11.428;2022-08-19T19:46:02;97271.47;;;21.68;72.02
8360;BME280;4217;48.762;11.428;2022-08-19T19:56:07;97286.06;;;21.88;70.12
8360;BME280;4217;48.762;11.428;2022-08-19T20:06:11;97297.25;;;21.99;69.40
8360;BME280;4217;48.762;11.428;2022-08-19T20:16:13;97303.69;;;21.89;68.73
8360;BME280;4217;48.762;11.428;2022-08-19T20:26:15;97319.13;;;21.92;67.49
8360;BME280;4217;48.762;11.428;2022-08-19T20:36:32;97325.59;;;21.74;67.81
8360;BME280;4217;48.762;11.428;2022-08-19T20:56:37;97355.44;;;22.19;66.31
8360;BME280;4217;48.762;11.428;2022-08-19T21:06:39;97349.69;;;22.00;67.33
8360;BME280;4217;48.762;11.428;2022-08-19T21:16:45;97361.19;;;21.74;69.00
8360;BME280;4217;48.762;11.428;2022-08-19T21:26:47;97366.69;;;21.86;68.93
8360;BME280;4217;48.762;11.428;2022-08-19T21:36:52;97371.25;;;21.86;69.62
8360;BME280;4217;48.762;11.428;2022-08-19T21:46:54;97386.53;;;21.94;69.43
8360;BME280;4217;48.762;11.428;2022-08-19T21:56:56;97407.50;;;21.83;70.06
8360;BME280;4217;48.762;11.428;2022-08-19T22:06:58;97405.59;;;21.84;70.32
8360;BME280;4217;48.762;11.428;2022-08-19T22:17:00;97402.44;;;22.16;69.12
8360;BME280;4217;48.762;11.428;2022-08-19T22:27:01;97403.41;;;22.12;69.36
8360;BME280;4217;48.762;11.428;2022-08-19T22:37:08;97401.47;;;22.12;69.75
8360;BME280;4217;48.762;11.428;2022-08-19T22:47:10;97397.06;;;22.16;70.14
8360;BME280;4217;48.762;11.428;2022-08-19T22:57:12;97390.13;;;22.15;70.14
8360;BME280;4217;48.762;11.428;2022-08-19T23:07:16;97393.91;;;22.14;70.59
8360;BME280;4217;48.762;11.428;2022-08-19T23:17:17;97388.97;;;22.42;69.65
8360;BME280;4217;48.762;11.428;2022-08-19T23:27:20;97396.81;;;22.56;69.40
8360;BME280;4217;48.762;11.428;2022-08-19T23:37:40;97407.66;;;22.59;68.91
8360;BME280;4217;48.762;11.428;2022-08-19T23:47:42;97392.22;;;22.56;69.06
8360;BME280;4217;48.762;11.428;2022-08-19T23:57:45;97390.84;;;22.50;69.16
